sensor_id;sensor_type;location;lat;lon;timestamp;pressure;altitude;pressure_sealevel;temperature;humidity
64253;BME280;50592;52.958;-7.470;2023-03-14T00:02:02;98350.44;;;3.53;100.00
64253;BME280;50592;52.958;-7.470;2023-03-14T00:04:29;98360.44;;;3.58;100.00
64253;BME280;50592;52.958;-7.470;2023-03-14T00:06:59;98375.81;;;3.61;100.00
64253;BME280;50592;52.958;-7.470;2023-03-14T00:09:29;98376.31;;;3.65;100.00
64253;BME280;50592;52.958;-7.470;2023-03-14T00:11:59;98374.06;;;3.70;100.00
64253;BME280;50592;52.958;-7.470;2023-03-14T00:14:26;98366.91;;;3.72;100.00
64253;BME280;50592;52.958;-7.470;2023-03-14T00:16:55;98365.94;;;3.73;100.00
64253;BME280;50592;52.958;-7.470;2023-03-14T00:19:25;98377.34;;;3.72;100.00
64253;BME280;50592;52.958;-7.470;2023-03-14T00:21:55;98370.19;;;3.74;100.00
64253;BME280;50592;52.958;-7.470;2023-03-14T00:24:25;98374.59;;;3.74;100.00
64253;BME280;50592;52.958;-7.470;2023-03-14T00:26:52;98370.66;;;3.69;100.00
64253;BME280;50592;52.958;-7.470;2023-03-14T00:29:24;98377.81;;;3.67;100.00
64253;BME280;50592;52.958;-7.470;2023-03-14T00:31:54;98384.66;;;3.68;100.00
64253;BME280;50592;52.958;-7.470;2023-03-14T00:34:28;98388.25;;;3.67;100.00
64253;BME280;50592;52.958;-7.470;2023-03-14T00:36:55;98392.34;;;3.70;100.00
64253;BME280;50592;52.958;-7.470;2023-03-14T00:39:25;98403.63;;;3.70;100.00
64253;BME280;50592;52.958;-7.470;2023-03-14T00:41:51;98405.72;;;3.67;100.00
64253;BME280;50592;52.958;-7.470;2023-03-14T00:44:20;98401.19;;;3.69;100.00
64253;BME280;50592;52.958;-7.470;2023-03-14T00:46:47;98401.03;;;3.70;100.00
64253;BME280;50592;52.958;-7.470;2023-03-14T00:49:18;98407.38;;;3.68;100.00
64253;BME280;50592;52.958;-7.470;2023-03-14T00:51:51;98415.13;;;3.59;100.00
64253;BME280;50592;52.958;-7.470;2023-03-14T00:54:19;98415.59;;;3.55;100.00
64253;BME280;50592;52.958;-7.470;2023-03-14T00:56:48;98432.00;;;3.47;100.00
64253;BME280;50592;52.958;-7.470;2023-03-14T00:59:15;98435.22;;;3.41;100.00
64253;BME280;50592;52.958;-7.470;2023-03-14T01:01:44;98449.38;;;3.38;100.00
64253;BME280;50592;52.958;-7.470;2023-03-14T01:04:11;98447.19;;;3.33;100.00
64253;BME280;50592;52.958;-7.470;2023-03-14T01:06:40;98455.03;;;3.33;100.00
64253;BME280;50592;52.958;-7.470;2023-03-14T01:09:09;98455.47;;;3.29;100.00
64253;BME280;50592;52.958;-7.470;2023-03-14T01:11:39;98465.94;;;3.29;100.00
64253;BME280;50592;52.958;-7.470;2023-03-14T01:14:10;98462.78;;;3.25;100.00
64253;BME280;50592;52.958;-7.470;2023-03-14T01:16:37;98475.47;;;3.20;100.00
64253;BME280;50592;52.958;-7.470;2023-03-14T01:19:07;98475.63;;;3.18;100.00
64253;BME280;50592;52.958;-7.470;2023-03-14T01:21:35;98482.75;;;3.16;100.00
64253;BME280;50592;52.958;-7.470;2023-03-14T01:24:05;98488.13;;;3.15;100.00
64253;BME280;50592;52.958;-7.470;2023-03-14T01:26:34;98495.28;;;3.13;100.00
64253;BME280;50592;52.958;-7.470;2023-03-14T01:29:06;98497.22;;;3.10;100.00
64253;BME280;50592;52.958;-7.470;2023-03-14T01:31:38;98500.94;;;3.08;100.00
64253;BME280;50592;52.958;-7.470;2023-03-14T01:34:08;98504.66;;;3.05;100.00
64253;BME280;50592;52.958;-7.470;2023-03-14T01:36:39;98504.81;;;3.04;100.00
64253;BME280;50592;52.958;-7.470;2023-03-14T01:39:09;98516.34;;;3.01;100.00
64253;BME280;50592;52.958;-7.470;2023-03-14T01:41:36;98527.59;;;3.02;100.00
64253;BME280;50592;52.958;-7.470;2023-03-14T01:44:10;98531.84;;;3.03;100.00
64253;BME280;50592;52.958;-7.470;2023-03-14T01:52:28;98574.31;;;3.05;100.00
64253;BME280;50592;52.958;-7.470;2023-03-14T01:55:12;98581.56;;;3.11;100.00
64253;BME280;50592;52.958;-7.470;2023-03-14T01:57:48;98578.16;;;3.10;100.00
64253;BME280;50592;52.958;-7.470;2023-03-14T02:00:22;98591.06;;;3.12;100.00
64253;BME280;50592;52.958;-7.470;2023-03-14T02:03:08;98601.78;;;3.09;100.00
64253;BME280;50592;52.958;-7.470;2023-03-14T02:05:40;98611.13;;;3.12;100.00
64253;BME280;50592;52.958;-7.470;2023-03-14T02:08:15;98613.88;;;3.10;100.00
64253;BME280;50592;52.958;-7.470;2023-03-14T02:10:52;98619.91;;;3.10;100.00
64253;BME280;50592;52.958;-7.470;2023-03-14T02:13:33;98631.88;;;3.03;100.00
64253;BME280;50592;52.958;-7.470;2023-03-14T02:16:25;98645.47;;;3.07;100.00
64253;BME280;50592;52.958;-7.470;2023-03-14T02:19:05;98657.00;;;3.04;100.00
64253;BME280;50592;52.958;-7.470;2023-03-14T02:22:06;98664.72;;;2.96;100.00
64253;BME280;50592;52.958;-7.470;2023-03-14T02:25:16;98680.94;;;2.90;100.00
64253;BME280;50592;52.958;-7.470;2023-03-14T02:27:50;98691.94;;;2.83;100.00
64253;BME280;50592;52.958;-7.470;2023-03-14T02:30:24;98713.75;;;2.82;100.00
64253;BME280;50592;52.958;-7.470;2023-03-14T02:32:58;98726.00;;;2.82;100.00
64253;BME280;50592;52.958;-7.470;2023-03-14T02:35:56;98739.84;;;2.82;100.00
64253;BME280;50592;52.958;-7.470;2023-03-14T02:38:38;98745.31;;;2.69;100.00
64253;BME280;50592;52.958;-7.470;2023-03-14T02:41:08;98754.09;;;2.58;100.00
64253;BME280;50592;52.958;-7.470;2023-03-14T02:43:44;98782.50;;;2.52;100.00
64253;BME280;50592;52.958;-7.470;2023-03-14T02:46:14;98788.78;;;2.39;100.00
64253;BME280;50592;52.958;-7.470;2023-03-14T02:48:59;98794.53;;;2.33;100.00
64253;BME280;50592;52.958;-7.470;2023-03-14T02:51:34;98801.81;;;2.29;100.00
64253;BME280;50592;52.958;-7.470;2023-03-14T02:54:07;98832.53;;;2.26;100.00
64253;BME280;50592;52.958;-7.470;2023-03-14T02:56:37;98829.16;;;2.14;100.00
64253;BME280;50592;52.958;-7.470;2023-03-14T02:59:08;98839.59;;;2.14;100.00
64253;BME280;50592;52.958;-7.470;2023-03-14T03:01:41;98835.22;;;2.14;100.00
64253;BME280;50592;52.958;-7.470;2023-03-14T03:04:11;98833.03;;;2.19;100.00
64253;BME280;50592;52.958;-7.470;2023-03-14T03:06:38;98842.44;;;2.10;100.00
64253;BME280;50592;52.958;-7.470;2023-03-14T03:09:07;98858.09;;;2.10;100.00
64253;BME280;50592;52.958;-7.470;2023-03-14T03:11:34;98885.63;;;2.03;100.00
64253;BME280;50592;52.958;-7.470;2023-03-14T03:14:04;98860.66;;;2.01;100.00
64253;BME280;50592;52.958;-7.470;2023-03-14T03:16:32;98841.06;;;2.06;100.00
64253;BME280;50592;52.958;-7.470;2023-03-14T03:19:00;98836.81;;;2.05;100.00
64253;BME280;50592;52.958;-7.470;2023-03-14T03:21:28;98856.31;;;2.11;100.00
64253;BME280;50592;52.958;-7.470;2023-03-14T03:23:55;98861.78;;;2.08;100.00
64253;BME280;50592;52.958;-7.470;2023-03-14T03:26:23;98861.28;;;2.14;100.00
64253;BME280;50592;52.958;-7.470;2023-03-14T03:28:51;98852.88;;;2.10;100.00
64253;BME280;50592;52.958;-7.470;2023-03-14T03:31:20;98864.72;;;2.15;100.00
64253;BME280;50592;52.958;-7.470;2023-03-14T03:33:47;98845.38;;;2.17;100.00
64253;BME280;50592;52.958;-7.470;2023-03-14T03:36:21;98851.16;;;2.21;100.00
64253;BME280;50592;52.958;-7.470;2023-03-14T03:38:49;98860.56;;;2.12;100.00
64253;BME280;50592;52.958;-7.470;2023-03-14T03:41:18;98880.16;;;2.28;100.00
64253;BME280;50592;52.958;-7.470;2023-03-14T03:43:47;98884.84;;;2.34;100.00
64253;BME280;50592;52.958;-7.470;2023-03-14T03:46:16;98888.72;;;2.40;100.00
64253;BME280;50592;52.958;-7.470;2023-03-14T03:48:44;98912.88;;;2.42;100.00
64253;BME280;50592;52.958;-7.470;2023-03-14T03:51:15;98936.22;;;2.43;100.00
64253;BME280;50592;52.958;-7.470;2023-03-14T03:53:45;98942.31;;;2.54;100.00
64253;BME280;50592;52.958;-7.470;2023-03-14T03:56:17;98954.97;;;2.58;100.00
64253;BME280;50592;52.958;-7.470;2023-03-14T03:58:47;98970.34;;;2.62;100.00
64253;BME280;50592;52.958;-7.470;2023-03-14T04:01:14;98980.38;;;2.56;100.00
64253;BME280;50592;52.958;-7.470;2023-03-14T04:03:47;98983.09;;;2.55;100.00
64253;BME280;50592;52.958;-7.470;2023-03-14T04:06:14;99000.34;;;2.46;100.00
64253;BME280;50592;52.958;-7.470;2023-03-14T04:08:45;99031.00;;;2.32;100.00
64253;BME280;50592;52.958;-7.470;2023-03-14T04:11:48;99068.03;;;2.15;100.00
64253;BME280;50592;52.958;-7.470;2023-03-14T04:14:21;99072.47;;;1.91;100.00
64253;BME280;50592;52.958;-7.470;2023-03-14T04:17:02;99068.72;;;1.84;100.00
64253;BME280;50592;52.958;-7.470;2023-03-14T04:19:29;99055.34;;;1.77;100.00
64253;BME280;50592;52.958;-7.470;2023-03-14T04:21:58;99065.06;;;1.75;100.00
64253;BME280;50592;52.958;-7.470;2023-03-14T04:24:30;99068.84;;;1.71;100.00
64253;BME280;50592;52.958;-7.470;2023-03-14T04:27:00;99079.16;;;1.72;100.00
64253;BME280;50592;52.958;-7.470;2023-03-14T04:29:30;99075.03;;;1.70;100.00
64253;BME280;50592;52.958;-7.470;2023-03-14T04:32:00;99087.34;;;1.68;100.00
64253;BME280;50592;52.958;-7.470;2023-03-14T04:34:30;99091.69;;;1.67;100.00
64253;BME280;50592;52.958;-7.470;2023-03-14T04:37:00;99098.72;;;1.67;100.00
64253;BME280;50592;52.958;-7.470;2023-03-14T04:39:38;99111.84;;;1.65;100.00
64253;BME280;50592;52.958;-7.470;2023-03-14T04:42:15;99120.59;;;1.64;100.00
64253;BME280;50592;52.958;-7.470;2023-03-14T04:44:44;99127.25;;;1.68;100.00
64253;BME280;50592;52.958;-7.470;2023-03-14T04:47:16;99131.72;;;1.66;100.00
64253;BME280;50592;52.958;-7.470;2023-03-14T04:49:45;99151.72;;;1.66;100.00
64253;BME280;50592;52.958;-7.470;2023-03-14T04:52:14;99165.34;;;1.69;100.00
64253;BME280;50592;52.958;-7.470;2023-03-14T04:54:43;99174.13;;;1.68;100.00
64253;BME280;50592;52.958;-7.470;2023-03-14T04:57:11;99178.84;;;1.63;100.00
64253;BME280;50592;52.958;-7.470;2023-03-14T04:59:39;99183.47;;;1.59;100.00
64253;BME280;50592;52.958;-7.470;2023-03-14T05:02:37;99184.16;;;1.50;100.00
64253;BME280;50592;52.958;-7.470;2023-03-14T05:05:26;99189.72;;;1.45;100.00
64253;BME280;50592;52.958;-7.470;2023-03-14T05:08:17;99199.47;;;1.43;100.00
64253;BME280;50592;52.958;-7.470;2023-03-14T05:10:57;99204.88;;;1.40;100.00
64253;BME280;50592;52.958;-7.470;2023-03-14T05:13:40;99216.47;;;1.36;100.00
64253;BME280;50592;52.958;-7.470;2023-03-14T05:16:17;99228.19;;;1.30;100.00
64253;BME280;50592;52.958;-7.470;2023-03-14T05:19:16;99229.59;;;1.34;100.00
64253;BME280;50592;52.958;-7.470;2023-03-14T05:22:02;99234.81;;;1.34;100.00
64253;BME280;50592;52.958;-7.470;2023-03-14T05:24:35;99229.97;;;1.41;100.00
64253;BME280;50592;52.958;-7.470;2023-03-14T05:27:25;99241.94;;;1.44;100.00
64253;BME280;50592;52.958;-7.470;2023-03-14T05:30:03;99246.22;;;1.45;100.00
64253;BME280;50592;52.958;-7.470;2023-03-14T05:32:44;99257.66;;;1.42;100.00
64253;BME280;50592;52.958;-7.470;2023-03-14T05:35:42;99269.03;;;1.41;100.00
64253;BME280;50592;52.958;-7.470;2023-03-14T05:38:37;99271.03;;;1.38;100.00
64253;BME280;50592;52.958;-7.470;2023-03-14T05:41:27;99268.09;;;1.42;100.00
64253;BME280;50592;52.958;-7.470;2023-03-14T05:44:14;99268.19;;;1.41;100.00
64253;BME280;50592;52.958;-7.470;2023-03-14T05:46:58;99282.66;;;1.45;100.00
64253;BME280;50592;52.958;-7.470;2023-03-14T05:49:30;99285.59;;;1.40;100.00
64253;BME280;50592;52.958;-7.470;2023-03-14T05:52:29;99284.66;;;1.41;100.00
64253;BME280;50592;52.958;-7.470;2023-03-14T05:55:32;99288.31;;;1.39;100.00
64253;BME280;50592;52.958;-7.470;2023-03-14T05:58:22;99303.22;;;1.36;100.00
64253;BME280;50592;52.958;-7.470;2023-03-14T06:01:12;99317.63;;;1.29;100.00
64253;BME280;50592;52.958;-7.470;2023-03-14T06:04:01;99313.38;;;1.28;100.00
64253;BME280;50592;52.958;-7.470;2023-03-14T06:06:28;99325.88;;;1.23;100.00
64253;BME280;50592;52.958;-7.470;2023-03-14T06:09:00;99329.94;;;1.27;100.00
64253;BME280;50592;52.958;-7.470;2023-03-14T06:11:33;99341.63;;;1.21;100.00
64253;BME280;50592;52.958;-7.470;2023-03-14T06:14:03;99342.78;;;1.17;100.00
64253;BME280;50592;52.958;-7.470;2023-03-14T06:16:33;99355.41;;;1.10;100.00
64253;BME280;50592;52.958;-7.470;2023-03-14T06:19:00;99357.03;;;1.00;100.00
64253;BME280;50592;52.958;-7.470;2023-03-14T06:21:30;99366.69;;;0.98;100.00
64253;BME280;50592;52.958;-7.470;2023-03-14T06:23:57;99374.50;;;0.98;100.00
64253;BME280;50592;52.958;-7.470;2023-03-14T06:26:30;99368.47;;;0.97;100.00
64253;BME280;50592;52.958;-7.470;2023-03-14T06:28:56;99379.72;;;0.98;100.00
64253;BME280;50592;52.958;-7.470;2023-03-14T06:31:32;99382.19;;;0.99;100.00
64253;BME280;50592;52.958;-7.470;2023-03-14T06:34:05;99383.84;;;1.01;100.00
64253;BME280;50592;52.958;-7.470;2023-03-14T06:36:32;99391.88;;;0.97;100.00
64253;BME280;50592;52.958;-7.470;2023-03-14T06:39:01;99399.78;;;0.96;100.00
64253;BME280;50592;52.958;-7.470;2023-03-14T06:41:30;99409.50;;;0.94;100.00
64253;BME280;50592;52.958;-7.470;2023-03-14T06:44:00;99408.56;;;0.95;100.00
64253;BME280;50592;52.958;-7.470;2023-03-14T06:46:27;99414.50;;;0.97;100.00
64253;BME280;50592;52.958;-7.470;2023-03-14T06:48:56;99418.13;;;0.94;100.00
64253;BME280;50592;52.958;-7.470;2023-03-14T06:51:23;99439.03;;;0.93;100.00
64253;BME280;50592;52.958;-7.470;2023-03-14T06:53:53;99442.47;;;0.93;100.00
64253;BME280;50592;52.958;-7.470;2023-03-14T06:56:23;99444.16;;;0.81;100.00
64253;BME280;50592;52.958;-7.470;2023-03-14T06:58:55;99450.31;;;0.80;100.00
64253;BME280;50592;52.958;-7.470;2023-03-14T07:01:26;99452.91;;;0.80;100.00
64253;BME280;50592;52.958;-7.470;2023-03-14T07:04:04;99461.44;;;0.82;100.00
64253;BME280;50592;52.958;-7.470;2023-03-14T07:06:33;99479.13;;;0.90;100.00
64253;BME280;50592;52.958;-7.470;2023-03-14T07:09:03;99480.75;;;1.04;100.00
64253;BME280;50592;52.958;-7.470;2023-03-14T07:11:34;99480.75;;;1.17;100.00
64253;BME280;50592;52.958;-7.470;2023-03-14T07:14:05;99493.22;;;1.25;100.00
64253;BME280;50592;52.958;-7.470;2023-03-14T07:16:34;99498.41;;;1.38;100.00
64253;BME280;50592;52.958;-7.470;2023-03-14T07:19:01;99502.63;;;1.52;100.00
64253;BME280;50592;52.958;-7.470;2023-03-14T07:21:32;99512.91;;;1.67;100.00
64253;BME280;50592;52.958;-7.470;2023-03-14T07:24:07;99522.03;;;1.72;100.00
64253;BME280;50592;52.958;-7.470;2023-03-14T07:26:34;99522.59;;;1.65;100.00
64253;BME280;50592;52.958;-7.470;2023-03-14T07:29:04;99523.97;;;1.57;100.00
64253;BME280;50592;52.958;-7.470;2023-03-14T07:31:34;99533.38;;;1.47;100.00
64253;BME280;50592;52.958;-7.470;2023-03-14T07:34:06;99540.59;;;1.43;100.00
64253;BME280;50592;52.958;-7.470;2023-03-14T07:36:40;99553.09;;;1.38;100.00
64253;BME280;50592;52.958;-7.470;2023-03-14T07:39:07;99554.22;;;1.34;100.00
64253;BME280;50592;52.958;-7.470;2023-03-14T07:41:35;99564.41;;;1.37;100.00
64253;BME280;50592;52.958;-7.470;2023-03-14T07:44:21;99572.34;;;1.35;100.00
64253;BME280;50592;52.958;-7.470;2023-03-14T07:46:50;99567.03;;;1.37;100.00
64253;BME280;50592;52.958;-7.470;2023-03-14T07:49:18;99580.66;;;1.41;100.00
64253;BME280;50592;52.958;-7.470;2023-03-14T07:51:50;99587.34;;;1.45;100.00
64253;BME280;50592;52.958;-7.470;2023-03-14T07:54:16;99588.28;;;1.44;100.00
64253;BME280;50592;52.958;-7.470;2023-03-14T07:56:45;99594.00;;;1.49;100.00
64253;BME280;50592;52.958;-7.470;2023-03-14T07:59:12;99599.22;;;1.49;100.00
64253;BME280;50592;52.958;-7.470;2023-03-14T08:01:41;99596.38;;;1.52;100.00
64253;BME280;50592;52.958;-7.470;2023-03-14T08:04:08;99604.94;;;1.54;100.00
64253;BME280;50592;52.958;-7.470;2023-03-14T08:06:38;99606.28;;;1.60;100.00
64253;BME280;50592;52.958;-7.470;2023-03-14T08:09:05;99615.63;;;1.63;100.00
64253;BME280;50592;52.958;-7.470;2023-03-14T08:11:34;99623.66;;;1.72;100.00
64253;BME280;50592;52.958;-7.470;2023-03-14T08:14:01;99617.31;;;1.77;100.00
64253;BME280;50592;52.958;-7.470;2023-03-14T08:16:31;99628.22;;;1.82;100.00
64253;BME280;50592;52.958;-7.470;2023-03-14T08:18:58;99628.84;;;1.85;100.00
64253;BME280;50592;52.958;-7.470;2023-03-14T08:21:28;99633.28;;;1.96;100.00
64253;BME280;50592;52.958;-7.470;2023-03-14T08:23:58;99632.84;;;2.03;100.00
64253;BME280;50592;52.958;-7.470;2023-03-14T08:26:27;99644.31;;;2.13;100.00
64253;BME280;50592;52.958;-7.470;2023-03-14T08:28:57;99640.19;;;2.22;100.00
64253;BME280;50592;52.958;-7.470;2023-03-14T08:31:27;99644.34;;;2.25;100.00
64253;BME280;50592;52.958;-7.470;2023-03-14T08:33:54;99644.03;;;2.29;100.00
64253;BME280;50592;52.958;-7.470;2023-03-14T08:36:23;99648.59;;;2.39;100.00
64253;BME280;50592;52.958;-7.470;2023-03-14T08:38:49;99642.69;;;2.48;100.00
64253;BME280;50592;52.958;-7.470;2023-03-14T08:41:20;99652.75;;;2.66;100.00
64253;BME280;50592;52.958;-7.470;2023-03-14T08:43:46;99660.28;;;2.82;100.00
64253;BME280;50592;52.958;-7.470;2023-03-14T08:46:15;99659.00;;;2.99;100.00
64253;BME280;50592;52.958;-7.470;2023-03-14T08:48:42;99659.03;;;3.10;100.00
64253;BME280;50592;52.958;-7.470;2023-03-14T08:51:13;99666.41;;;3.17;100.00
64253;BME280;50592;52.958;-7.470;2023-03-14T08:53:43;99673.78;;;3.23;100.00
64253;BME280;50592;52.958;-7.470;2023-03-14T08:56:13;99672.47;;;3.29;100.00
64253;BME280;50592;52.958;-7.470;2023-03-14T08:58:40;99673.09;;;3.32;100.00
64253;BME280;50592;52.958;-7.470;2023-03-14T09:01:10;99673.34;;;3.41;100.00
64253;BME280;50592;52.958;-7.470;2023-03-14T09:03:37;99665.03;;;3.47;100.00
64253;BME280;50592;52.958;-7.470;2023-03-14T09:06:09;99665.97;;;3.57;100.00
64253;BME280;50592;52.958;-7.470;2023-03-14T09:08:36;99672.28;;;3.66;100.00
64253;BME280;50592;52.958;-7.470;2023-03-14T09:11:08;99662.66;;;3.78;100.00
64253;BME280;50592;52.958;-7.470;2023-03-14T09:13:35;99666.09;;;3.79;100.00
64253;BME280;50592;52.958;-7.470;2023-03-14T09:16:04;99666.56;;;3.84;100.00
64253;BME280;50592;52.958;-7.470;2023-03-14T09:18:31;99674.03;;;3.89;100.00
64253;BME280;50592;52.958;-7.470;2023-03-14T09:21:01;99676.91;;;3.97;100.00
64253;BME280;50592;52.958;-7.470;2023-03-14T09:23:28;99683.31;;;4.04;100.00
64253;BME280;50592;52.958;-7.470;2023-03-14T09:25:58;99677.00;;;4.07;100.00
64253;BME280;50592;52.958;-7.470;2023-03-14T09:28:26;99686.13;;;4.13;100.00
64253;BME280;50592;52.958;-7.470;2023-03-14T09:30:56;99697.78;;;4.20;100.00
64253;BME280;50592;52.958;-7.470;2023-03-14T09:33:26;99695.16;;;4.31;100.00
64253;BME280;50592;52.958;-7.470;2023-03-14T09:35:58;99696.09;;;4.42;100.00
64253;BME280;50592;52.958;-7.470;2023-03-14T09:38:26;99703.22;;;4.40;100.00
64253;BME280;50592;52.958;-7.470;2023-03-14T09:40:57;99707.16;;;4.45;100.00
64253;BME280;50592;52.958;-7.470;2023-03-14T09:43:26;99704.88;;;4.52;100.00
64253;BME280;50592;52.958;-7.470;2023-03-14T09:46:01;99717.72;;;4.55;100.00
64253;BME280;50592;52.958;-7.470;2023-03-14T09:48:33;99723.97;;;4.64;100.00
64253;BME280;50592;52.958;-7.470;2023-03-14T09:51:07;99722.50;;;4.71;100.00
64253;BME280;50592;52.958;-7.470;2023-03-14T09:53:45;99727.03;;;4.81;100.00
64253;BME280;50592;52.958;-7.470;2023-03-14T09:56:19;99725.06;;;4.94;100.00
64253;BME280;50592;52.958;-7.470;2023-03-14T09:58:59;99726.59;;;4.97;100.00
64253;BME280;50592;52.958;-7.470;2023-03-14T10:01:28;99728.34;;;5.08;100.00
64253;BME280;50592;52.958;-7.470;2023-03-14T10:04:07;99733.25;;;5.22;100.00
64253;BME280;50592;52.958;-7.470;2023-03-14T10:06:41;99734.31;;;5.31;100.00
64253;BME280;50592;52.958;-7.470;2023-03-14T10:09:19;99729.78;;;5.33;100.00
64253;BME280;50592;52.958;-7.470;2023-03-14T10:11:57;99726.69;;;5.28;100.00
64253;BME280;50592;52.958;-7.470;2023-03-14T10:14:34;99733.97;;;5.25;100.00
64253;BME280;50592;52.958;-7.470;2023-03-14T10:17:10;99735.00;;;5.12;100.00
64253;BME280;50592;52.958;-7.470;2023-03-14T10:19:53;99744.88;;;5.08;100.00
64253;BME280;50592;52.958;-7.470;2023-03-14T10:22:26;99743.34;;;5.06;100.00
64253;BME280;50592;52.958;-7.470;2023-03-14T10:25:04;99747.41;;;4.99;100.00
64253;BME280;50592;52.958;-7.470;2023-03-14T10:27:36;99745.63;;;4.99;100.00
64253;BME280;50592;52.958;-7.470;2023-03-14T10:30:13;99754.47;;;4.98;100.00
64253;BME280;50592;52.958;-7.470;2023-03-14T10:32:52;99756.31;;;5.07;100.00
64253;BME280;50592;52.958;-7.470;2023-03-14T10:35:23;99755.41;;;5.30;100.00
64253;BME280;50592;52.958;-7.470;2023-03-14T10:40:27;99756.28;;;5.62;100.00
64253;BME280;50592;52.958;-7.470;2023-03-14T10:42:59;99753.63;;;5.83;100.00
64253;BME280;50592;52.958;-7.470;2023-03-14T10:48:17;99753.78;;;6.13;100.00
64253;BME280;50592;52.958;-7.470;2023-03-14T10:50:56;99760.03;;;6.22;100.00
64253;BME280;50592;52.958;-7.470;2023-03-14T10:53:26;99757.97;;;6.25;100.00
64253;BME280;50592;52.958;-7.470;2023-03-14T10:55:55;99746.94;;;6.31;100.00
64253;BME280;50592;52.958;-7.470;2023-03-14T10:58:27;99760.22;;;6.40;100.00
64253;BME280;50592;52.958;-7.470;2023-03-14T11:03:32;99757.06;;;6.46;100.00
64253;BME280;50592;52.958;-7.470;2023-03-14T11:11:39;99769.41;;;6.14;100.00
64253;BME280;50592;52.958;-7.470;2023-03-14T11:14:23;99764.19;;;6.24;100.00
64253;BME280;50592;52.958;-7.470;2023-03-14T11:17:00;99773.06;;;6.33;100.00
64253;BME280;50592;52.958;-7.470;2023-03-14T11:22:51;99779.56;;;6.39;100.00
64253;BME280;50592;52.958;-7.470;2023-03-14T11:25:29;99787.41;;;6.29;100.00
64253;BME280;50592;52.958;-7.470;2023-03-14T11:28:29;99792.34;;;6.22;100.00
64253;BME280;50592;52.958;-7.470;2023-03-14T11:36:44;99784.88;;;6.17;100.00
64253;BME280;50592;52.958;-7.470;2023-03-14T11:39:17;99788.91;;;6.22;100.00
64253;BME280;50592;52.958;-7.470;2023-03-14T11:41:51;99786.28;;;6.22;100.00
64253;BME280;50592;52.958;-7.470;2023-03-14T11:44:23;99793.06;;;6.34;100.00
64253;BME280;50592;52.958;-7.470;2023-03-14T11:47:06;99785.28;;;6.54;100.00
64253;BME280;50592;52.958;-7.470;2023-03-14T11:57:37;99767.81;;;6.33;100.00
64253;BME280;50592;52.958;-7.470;2023-03-14T12:00:18;99788.66;;;6.35;100.00
64253;BME280;50592;52.958;-7.470;2023-03-14T12:10:41;99802.13;;;5.89;100.00
64253;BME280;50592;52.958;-7.470;2023-03-14T12:13:14;99804.56;;;5.80;100.00
64253;BME280;50592;52.958;-7.470;2023-03-14T12:16:19;99811.94;;;5.65;100.00
64253;BME280;50592;52.958;-7.470;2023-03-14T12:18:47;99804.94;;;5.54;100.00
64253;BME280;50592;52.958;-7.470;2023-03-14T12:21:17;99812.63;;;5.46;100.00
64253;BME280;50592;52.958;-7.470;2023-03-14T12:23:54;99807.69;;;5.31;100.00
64253;BME280;50592;52.958;-7.470;2023-03-14T12:26:25;99821.81;;;5.07;100.00
64253;BME280;50592;52.958;-7.470;2023-03-14T12:42:13;99838.47;;;4.28;100.00
64253;BME280;50592;52.958;-7.470;2023-03-14T12:44:46;99835.25;;;4.47;100.00
64253;BME280;50592;52.958;-7.470;2023-03-14T12:49:51;99823.97;;;5.02;100.00
64253;BME280;50592;52.958;-7.470;2023-03-14T12:52:38;99829.81;;;5.27;100.00
64253;BME280;50592;52.958;-7.470;2023-03-14T12:55:24;99815.66;;;5.30;100.00
64253;BME280;50592;52.958;-7.470;2023-03-14T13:00:39;99810.69;;;5.48;100.00
64253;BME280;50592;52.958;-7.470;2023-03-14T13:03:22;99813.03;;;5.51;100.00
64253;BME280;50592;52.958;-7.470;2023-03-14T13:05:58;99804.75;;;5.67;100.00
64253;BME280;50592;52.958;-7.470;2023-03-14T13:08:43;99810.25;;;5.86;100.00
64253;BME280;50592;52.958;-7.470;2023-03-14T13:11:16;99802.50;;;6.05;100.00
64253;BME280;50592;52.958;-7.470;2023-03-14T13:13:48;99810.91;;;6.30;100.00
64253;BME280;50592;52.958;-7.470;2023-03-14T13:16:20;99817.38;;;6.26;100.00
64253;BME280;50592;52.958;-7.470;2023-03-14T13:18:59;99822.34;;;6.29;100.00
64253;BME280;50592;52.958;-7.470;2023-03-14T13:21:28;99830.34;;;6.18;100.00
64253;BME280;50592;52.958;-7.470;2023-03-14T13:24:20;99832.44;;;6.24;100.00
64253;BME280;50592;52.958;-7.470;2023-03-14T13:26:54;99839.50;;;6.33;100.00
64253;BME280;50592;52.958;-7.470;2023-03-14T13:29:29;99835.66;;;6.38;100.00
64253;BME280;50592;52.958;-7.470;2023-03-14T13:32:02;99830.13;;;6.41;100.00
64253;BME280;50592;52.958;-7.470;2023-03-14T13:34:37;99836.13;;;6.53;100.00
64253;BME280;50592;52.958;-7.470;2023-03-14T13:37:16;99808.53;;;6.68;100.00
64253;BME280;50592;52.958;-7.470;2023-03-14T13:39:50;99811.59;;;6.83;100.00
64253;BME280;50592;52.958;-7.470;2023-03-14T13:42:18;99808.72;;;6.97;100.00
64253;BME280;50592;52.958;-7.470;2023-03-14T13:44:48;99801.97;;;7.04;100.00
64253;BME280;50592;52.958;-7.470;2023-03-14T13:47:17;99815.25;;;7.02;100.00
64253;BME280;50592;52.958;-7.470;2023-03-14T13:49:49;99806.50;;;7.02;100.00
64253;BME280;50592;52.958;-7.470;2023-03-14T13:52:29;99819.06;;;6.88;100.00
64253;BME280;50592;52.958;-7.470;2023-03-14T13:55:00;99828.59;;;6.79;100.00
64253;BME280;50592;52.958;-7.470;2023-03-14T13:57:49;99828.66;;;6.58;100.00
64253;BME280;50592;52.958;-7.470;2023-03-14T14:00:24;99830.41;;;6.38;100.00
64253;BME280;50592;52.958;-7.470;2023-03-14T14:02:57;99834.22;;;6.24;100.00
64253;BME280;50592;52.958;-7.470;2023-03-14T14:05:27;99826.28;;;6.14;100.00
64253;BME280;50592;52.958;-7.470;2023-03-14T14:07:58;99822.03;;;6.13;100.00
64253;BME280;50592;52.958;-7.470;2023-03-14T14:10:28;99829.19;;;6.11;100.00
64253;BME280;50592;52.958;-7.470;2023-03-14T14:13:00;99824.50;;;6.14;100.00
64253;BME280;50592;52.958;-7.470;2023-03-14T14:15:42;99828.56;;;6.28;100.00
64253;BME280;50592;52.958;-7.470;2023-03-14T14:18:14;99833.91;;;6.48;100.00
64253;BME280;50592;52.958;-7.470;2023-03-14T14:20:44;99827.31;;;6.64;100.00
64253;BME280;50592;52.958;-7.470;2023-03-14T14:23:19;99831.47;;;6.66;100.00
64253;BME280;50592;52.958;-7.470;2023-03-14T14:25:52;99830.09;;;6.72;100.00